»·PEaware :: N62406 KVCV-KVNY

N62406 :: KVCV-KVNY

FLIGHT INFORMATION

Flight Status: Arrived
Operator: Privately registered:
United States
More flights under this callsign
Pilot: Jair P. (32054)
Aircraft: CESSNA 152 AEROBAT
(C152)
More flights by this aircraft type
Origin: KVCV Socal Logistics
United States
Destination: KVNY Van Nuys
United States
More flights between these airports :: More routes between these airports
Route: +
File this flight plan on PilotEdge
Remarks:
Altitude:
(Current/Filed)
4,500ft
Speed:
(Current/Filed)
110kts
Departed: 08-Nov-20 11:53 AM
Arrived: 08-Nov-20 12:33 PM
Distance/Time
Traveled:
60nm/0:40
Distance/Time
To Go:
Arrived

Flight Plot

Page will automatically refresh every two minutes.

Flight plan parsing failed; only flown route is shown


Map Options




Map Legend


Flown Route
Filed Route
Departure Airport
Arrival Airport
Navaid (VOR, NDB)
Fix

Horizontal Profiles

Position Reports

Time Latitude Longitude Heading Altitude Ground
Speed
08-Nov-20 11:44 34.589230 -117.375794 50 2867ft 0kts
08-Nov-20 11:45 34.589230 -117.375794 50 2867ft 0kts
08-Nov-20 11:46 34.589230 -117.375794 50 2867ft 0kts
08-Nov-20 11:47 34.589229 -117.375794 50 2867ft 0kts
08-Nov-20 11:48 34.590168 -117.376040 43 2866ft 14kts
08-Nov-20 11:49 34.593348 -117.370776 90 2859ft 20kts
08-Nov-20 11:50 34.596336 -117.367331 9 2853ft 20kts
08-Nov-20 11:51 34.599053 -117.366627 12 2849ft 0kts
08-Nov-20 11:52 34.598670 -117.368918 224 2855ft 49kts
08-Nov-20 11:53 34.582205 -117.387603 224 3148ft 94kts
08-Nov-20 11:54 34.563618 -117.408322 223 3802ft 87kts
08-Nov-20 11:55 34.544858 -117.427517 220 4373ft 91kts
08-Nov-20 11:56 34.522788 -117.449457 236 4466ft 111kts
08-Nov-20 11:57 34.534806 -117.485859 291 4472ft 121kts
08-Nov-20 11:58 34.550609 -117.522078 291 4476ft 121kts
08-Nov-20 11:59 34.549157 -117.559005 248 4473ft 113kts
08-Nov-20 12:00 34.539419 -117.595439 248 4470ft 113kts
08-Nov-20 12:01 34.529645 -117.632062 248 4476ft 114kts
08-Nov-20 12:02 34.519870 -117.668713 248 4475ft 114kts
08-Nov-20 12:03 34.510054 -117.705477 248 4486ft 114kts
08-Nov-20 12:04 34.500289 -117.742058 248 4480ft 113kts
08-Nov-20 12:05 34.491567 -117.774741 246 4971ft 93kts
08-Nov-20 12:06 34.492509 -117.804056 299 5574ft 99kts
08-Nov-20 12:07 34.509225 -117.830078 300 6173ft 96kts
08-Nov-20 12:08 34.525422 -117.855266 298 6774ft 92kts
08-Nov-20 12:09 34.538328 -117.879852 241 7373ft 74kts
08-Nov-20 12:10 34.535228 -117.904753 254 7972ft 72kts
08-Nov-20 12:11 34.532503 -117.928521 255 8460ft 78kts
08-Nov-20 12:12 34.528874 -117.960180 257 8504ft 105kts
08-Nov-20 12:13 34.524739 -117.996239 257 8504ft 109kts
08-Nov-20 12:14 34.520526 -118.032957 257 8511ft 110kts
08-Nov-20 12:15 34.516294 -118.069887 258 8515ft 110kts
08-Nov-20 12:16 34.512091 -118.106612 258 8522ft 109kts
08-Nov-20 12:17 34.507850 -118.143532 259 8532ft 112kts
08-Nov-20 12:18 34.503438 -118.182101 259 8282ft 121kts
08-Nov-20 12:19 34.481743 -118.203605 180 7565ft 125kts
08-Nov-20 12:20 34.453996 -118.222051 224 6929ft 115kts
08-Nov-20 12:21 34.431514 -118.248473 224 6800ft 108kts
08-Nov-20 12:22 34.409720 -118.274019 224 6532ft 109kts
08-Nov-20 12:23 34.388613 -118.298739 224 6510ft 104kts
08-Nov-20 12:24 34.367386 -118.323581 224 6517ft 108kts
08-Nov-20 12:25 34.345457 -118.349226 224 6404ft 115kts
08-Nov-20 12:26 34.321248 -118.377525 224 5894ft 123kts
08-Nov-20 12:27 34.296374 -118.406580 224 5165ft 122kts
08-Nov-20 12:28 34.271503 -118.435627 224 3907ft 124kts
08-Nov-20 12:29 34.248193 -118.462825 224 3239ft 102kts
08-Nov-20 12:30 34.229879 -118.489132 218 1648ft 88kts
08-Nov-20 12:31 34.209954 -118.490456 182 787ft 50kts
08-Nov-20 12:32 34.206605 -118.491065 305 778ft 0kts
08-Nov-20 12:33 34.206605 -118.491065 305 778ft 0kts
08-Nov-20 12:34 34.207647 -118.491381 357 782ft 8kts
08-Nov-20 12:35 34.212955 -118.491882 357 791ft 32kts
08-Nov-20 12:36 34.217298 -118.496216 275 800ft 11kts
08-Nov-20 12:37 34.217303 -118.496285 274 800ft 0kts
08-Nov-20 12:38 34.217303 -118.496285 274 800ft 0kts
08-Nov-20 12:39 34.217303 -118.496285 274 800ft 0kts
08-Nov-20 12:40 34.217303 -118.496285 274 800ft 0kts
08-Nov-20 12:41 34.217303 -118.496285 274 800ft 0kts
08-Nov-20 12:42 34.217303 -118.496285 274 800ft 0kts
08-Nov-20 12:43 34.217303 -118.496285 274 800ft 0kts
08-Nov-20 12:44 34.217303 -118.496285 274 800ft 0kts
08-Nov-20 12:45 34.217303 -118.496285 274 800ft 0kts
08-Nov-20 12:46 34.217303 -118.496285 274 800ft 0kts

Navigation Log

Ident Type
Flight plan parsing failed, navigation log unavailable